createdAt,value
2018-10-03T00:02:08.471Z,100.00
2018-10-03T00:04:37.163Z,100.00
2018-10-03T00:07:05.862Z,100.00
2018-10-03T00:09:34.549Z,100.00
2018-10-03T00:12:03.247Z,100.00
2018-10-03T00:14:31.875Z,100.00
2018-10-03T00:17:00.459Z,100.00
2018-10-03T00:19:29.148Z,100.00
2018-10-03T00:21:57.738Z,100.00
2018-10-03T00:24:26.259Z,100.00
2018-10-03T00:26:54.875Z,100.00
2018-10-03T00:29:23.387Z,100.00
2018-10-03T00:31:53.063Z,100.00
2018-10-03T00:34:21.669Z,100.00
2018-10-03T00:36:51.883Z,100.00
2018-10-03T00:39:21.499Z,100.00
2018-10-03T00:41:51.200Z,100.00
2018-10-03T00:44:19.875Z,100.00
2018-10-03T00:46:48.536Z,100.00
2018-10-03T00:49:18.051Z,100.00
2018-10-03T00:51:47.730Z,100.00
2018-10-03T00:54:16.224Z,100.00
2018-10-03T00:56:44.765Z,100.00
2018-10-03T00:59:13.314Z,100.00
2018-10-03T01:01:41.815Z,100.00
2018-10-03T01:04:10.387Z,100.00
2018-10-03T01:06:38.924Z,100.00
2018-10-03T01:09:07.654Z,100.00
2018-10-03T01:11:36.223Z,100.00
2018-10-03T01:14:04.894Z,100.00
2018-10-03T01:16:33.482Z,100.00
2018-10-03T01:19:02.107Z,100.00
2018-10-03T01:21:30.646Z,100.00
2018-10-03T01:23:59.230Z,100.00
2018-10-03T01:26:27.822Z,100.00
2018-10-03T01:28:57.435Z,100.00
2018-10-03T01:31:26.122Z,100.00
2018-10-03T01:33:54.767Z,100.00
2018-10-03T01:36:23.304Z,100.00
2018-10-03T01:38:51.888Z,100.00
2018-10-03T01:41:20.478Z,100.00
2018-10-03T01:43:49.028Z,100.00
2018-10-03T01:46:17.579Z,100.00
2018-10-03T01:48:46.151Z,100.00
2018-10-03T01:51:14.746Z,100.00
2018-10-03T01:53:43.328Z,100.00
2018-10-03T01:56:11.980Z,100.00
2018-10-03T01:58:40.544Z,100.00
2018-10-03T02:01:09.159Z,100.00
2018-10-03T02:03:37.818Z,100.00
2018-10-03T02:06:06.392Z,100.00
2018-10-03T02:08:35.156Z,100.00
2018-10-03T02:11:03.739Z,100.00
2018-10-03T02:13:32.226Z,100.00
2018-10-03T02:16:00.816Z,100.00
2018-10-03T02:18:29.452Z,100.00
2018-10-03T02:20:58.014Z,100.00
2018-10-03T02:23:26.574Z,100.00
2018-10-03T02:25:55.126Z,100.00
2018-10-03T02:28:24.636Z,100.00
2018-10-03T02:30:53.115Z,100.00
2018-10-03T02:33:21.671Z,100.00
2018-10-03T02:35:50.362Z,100.00
2018-10-03T02:38:18.873Z,100.00
2018-10-03T02:40:47.403Z,100.00
2018-10-03T02:43:15.962Z,100.00
2018-10-03T02:45:44.490Z,100.00
2018-10-03T02:48:13.119Z,100.00
2018-10-03T02:50:41.659Z,100.00
2018-10-03T02:53:10.166Z,100.00
2018-10-03T02:55:38.845Z,100.00
2018-10-03T02:58:08.143Z,100.00
2018-10-03T03:00:36.727Z,100.00
2018-10-03T03:03:05.334Z,100.00
2018-10-03T03:05:33.916Z,100.00
2018-10-03T03:08:02.576Z,100.00
2018-10-03T03:10:32.966Z,100.00
2018-10-03T03:13:01.502Z,100.00
2018-10-03T03:15:31.027Z,100.00
2018-10-03T03:21:20.446Z,100.00
2018-10-03T03:23:48.925Z,100.00
2018-10-03T03:26:19.687Z,100.00
2018-10-03T03:28:48.296Z,100.00
2018-10-03T03:31:17.489Z,100.00
2018-10-03T03:33:45.949Z,100.00
2018-10-03T03:36:14.589Z,100.00
2018-10-03T03:38:43.159Z,99.89
2018-10-03T03:41:11.754Z,98.55
2018-10-03T03:43:40.439Z,97.70
2018-10-03T03:46:09.327Z,100.00
2018-10-03T03:48:37.855Z,100.00
2018-10-03T03:51:07.614Z,100.00
2018-10-03T03:53:36.340Z,100.00
2018-10-03T03:56:04.893Z,100.00
2018-10-03T03:58:33.578Z,100.00
2018-10-03T04:01:02.198Z,100.00
2018-10-03T04:03:30.788Z,100.00
2018-10-03T04:05:59.367Z,100.00
2018-10-03T04:08:27.946Z,100.00
2018-10-03T04:10:56.531Z,100.00
2018-10-03T04:13:25.995Z,100.00
2018-10-03T04:15:54.547Z,99.36
2018-10-03T04:18:24.620Z,99.98
2018-10-03T04:20:53.207Z,98.98
2018-10-03T04:23:21.759Z,98.90
2018-10-03T04:25:50.356Z,97.82
2018-10-03T04:28:18.904Z,96.98
2018-10-03T04:30:47.444Z,97.60
2018-10-03T04:33:16.108Z,96.53
2018-10-03T04:35:44.805Z,96.75
2018-10-03T04:38:13.275Z,96.75
2018-10-03T04:40:41.865Z,96.73
2018-10-03T04:43:10.453Z,96.97
2018-10-03T04:45:38.986Z,96.32
2018-10-03T04:48:07.558Z,96.12
2018-10-03T04:50:36.102Z,94.87
2018-10-03T04:53:05.968Z,92.89
2018-10-03T04:55:34.664Z,92.98
2018-10-03T04:58:03.318Z,91.38
2018-10-03T05:00:31.896Z,92.36
2018-10-03T05:03:00.414Z,91.29
2018-10-03T05:05:28.927Z,90.67
2018-10-03T05:07:58.190Z,90.30
2018-10-03T05:10:26.749Z,89.49
2018-10-03T05:12:55.506Z,88.77
2018-10-03T05:15:24.053Z,86.98
2018-10-03T05:17:52.640Z,87.09
2018-10-03T05:20:21.288Z,86.87
2018-10-03T05:22:50.024Z,86.57
2018-10-03T05:25:18.547Z,86.86
2018-10-03T05:27:47.298Z,85.48
2018-10-03T05:30:15.867Z,84.82
2018-10-03T05:32:44.495Z,85.04
2018-10-03T05:35:13.177Z,84.90
2018-10-03T05:37:41.822Z,84.85
2018-10-03T05:40:10.639Z,84.97
2018-10-03T05:42:39.381Z,85.00
2018-10-03T05:45:07.924Z,84.46
2018-10-03T05:47:36.494Z,83.91
2018-10-03T05:50:05.243Z,85.12
2018-10-03T05:52:33.820Z,84.96
2018-10-03T05:55:02.416Z,85.14
2018-10-03T05:57:30.968Z,85.82
2018-10-03T05:59:59.534Z,85.32
2018-10-03T06:02:28.148Z,84.46
2018-10-03T06:04:56.746Z,85.43
2018-10-03T06:07:25.587Z,83.98
2018-10-03T06:09:54.039Z,84.87
2018-10-03T06:12:22.637Z,84.79
2018-10-03T06:14:51.235Z,84.14
2018-10-03T06:17:20.123Z,84.48
2018-10-03T06:19:48.599Z,83.42
2018-10-03T06:22:17.248Z,83.40
2018-10-03T06:24:45.996Z,81.14
2018-10-03T06:27:14.843Z,81.88
2018-10-03T06:29:44.993Z,82.73
2018-10-03T06:32:13.643Z,82.27
2018-10-03T06:34:42.231Z,82.05
2018-10-03T06:37:11.664Z,81.12
2018-10-03T06:39:40.269Z,80.62
2018-10-03T06:42:08.479Z,80.60
2018-10-03T06:44:37.123Z,79.25
2018-10-03T06:47:05.703Z,76.93
2018-10-03T06:49:36.398Z,76.75
2018-10-03T06:52:05.270Z,77.99
2018-10-03T06:54:33.747Z,77.69
2018-10-03T06:57:02.505Z,76.16
2018-10-03T06:59:31.321Z,76.06
2018-10-03T07:01:59.856Z,76.16
2018-10-03T07:04:28.395Z,75.96
2018-10-03T07:06:57.019Z,75.62
2018-10-03T07:09:25.812Z,77.07
2018-10-03T07:11:54.254Z,74.46
2018-10-03T07:14:22.776Z,75.27
2018-10-03T07:16:51.744Z,74.24
2018-10-03T07:19:20.638Z,74.42
2018-10-03T07:21:49.232Z,73.17
2018-10-03T07:24:17.773Z,74.59
2018-10-03T07:26:46.356Z,74.17
2018-10-03T07:29:14.896Z,74.13
2018-10-03T07:31:43.477Z,71.22
2018-10-03T07:34:12.257Z,71.90
2018-10-03T07:36:40.840Z,70.26
2018-10-03T07:39:10.292Z,71.56
2018-10-03T07:41:39.050Z,68.93
2018-10-03T07:44:08.054Z,68.36
2018-10-03T07:46:36.628Z,68.51
2018-10-03T07:49:05.195Z,67.83
2018-10-03T07:51:33.812Z,68.45
2018-10-03T07:54:02.402Z,66.82
2018-10-03T07:56:31.832Z,68.08
2018-10-03T07:59:00.412Z,66.68
2018-10-03T08:01:28.986Z,67.01
2018-10-03T08:03:57.728Z,67.45
2018-10-03T08:06:26.307Z,65.98
2018-10-03T08:08:55.021Z,66.38
2018-10-03T08:11:23.572Z,66.20
2018-10-03T08:13:52.084Z,66.23
2018-10-03T08:16:20.660Z,66.77
2018-10-03T08:18:49.581Z,66.99
2018-10-03T08:21:18.811Z,66.81
2018-10-03T08:23:47.320Z,66.37
2018-10-03T08:26:15.852Z,67.46
2018-10-03T08:28:44.438Z,67.00
2018-10-03T08:31:13.800Z,66.46
2018-10-03T08:33:42.428Z,66.01
2018-10-03T08:36:11.066Z,66.37
2018-10-03T08:38:39.672Z,66.30
2018-10-03T08:41:08.295Z,65.87
2018-10-03T08:43:36.854Z,67.35
2018-10-03T08:46:05.383Z,66.21
2018-10-03T08:48:33.997Z,67.22
2018-10-03T08:51:02.537Z,67.21
2018-10-03T08:53:31.116Z,67.20
2018-10-03T08:55:59.703Z,67.08
2018-10-03T08:58:28.441Z,67.26
2018-10-03T09:00:56.766Z,66.58
2018-10-03T09:03:25.276Z,66.78
2018-10-03T09:05:53.814Z,66.46
2018-10-03T09:08:22.471Z,66.52
2018-10-03T09:13:26.914Z,67.55
2018-10-03T09:15:55.688Z,67.23
2018-10-03T09:18:24.413Z,68.41
2018-10-03T09:20:53.008Z,68.53
2018-10-03T09:23:21.587Z,68.01
2018-10-03T09:25:50.325Z,67.83
2018-10-03T09:28:18.871Z,68.34
2018-10-03T09:30:47.488Z,67.50
2018-10-03T09:33:16.096Z,67.60
2018-10-03T09:35:44.645Z,67.23
2018-10-03T09:38:13.192Z,66.73
2018-10-03T09:40:41.819Z,66.39
2018-10-03T09:43:10.617Z,67.18
2018-10-03T09:45:39.078Z,65.16
2018-10-03T09:48:07.653Z,64.33
2018-10-03T09:50:36.215Z,64.96
2018-10-03T09:53:04.890Z,69.53
2018-10-03T09:55:33.477Z,72.64
2018-10-03T09:58:02.000Z,73.21
2018-10-03T10:00:35.985Z,73.03
2018-10-03T10:03:04.679Z,70.19
2018-10-03T10:05:33.352Z,67.95
2018-10-03T10:08:01.955Z,67.18
2018-10-03T10:10:30.456Z,67.62
2018-10-03T10:12:59.533Z,66.67
2018-10-03T10:15:28.294Z,67.67
2018-10-03T10:17:56.904Z,67.20
2018-10-03T10:20:25.565Z,65.06
2018-10-03T10:22:54.391Z,64.91
2018-10-03T10:25:22.882Z,70.87
2018-10-03T10:27:51.388Z,79.79
2018-10-03T10:30:20.058Z,76.01
2018-10-03T10:32:48.640Z,76.47
2018-10-03T10:35:17.166Z,80.61
2018-10-03T10:37:47.299Z,83.99
2018-10-03T10:40:15.975Z,81.17
2018-10-03T10:42:44.470Z,80.08
2018-10-03T10:45:13.004Z,81.24
2018-10-03T10:47:42.150Z,75.70
2018-10-03T10:50:10.967Z,76.45
2018-10-03T10:52:39.624Z,76.13
2018-10-03T10:55:08.314Z,74.40
2018-10-03T10:57:37.000Z,78.53
2018-10-03T11:00:05.897Z,77.75
2018-10-03T11:02:34.681Z,77.43
2018-10-03T11:05:05.129Z,75.96
2018-10-03T11:07:33.645Z,71.40
2018-10-03T11:10:02.248Z,71.91
2018-10-03T11:12:30.760Z,70.53
2018-10-03T11:14:59.278Z,70.68
2018-10-03T11:17:27.862Z,71.01
2018-10-03T11:19:56.581Z,69.34
2018-10-03T11:22:26.269Z,66.83
2018-10-03T11:24:54.979Z,66.48
2018-10-03T11:27:23.474Z,67.12
2018-10-03T11:29:52.033Z,64.29
2018-10-03T11:32:20.624Z,60.24
2018-10-03T11:34:49.172Z,60.58
2018-10-03T11:37:17.747Z,59.67
2018-10-03T11:39:46.352Z,59.54
2018-10-03T11:42:14.936Z,57.79
2018-10-03T11:44:43.665Z,55.51
2018-10-03T11:47:12.269Z,55.56
2018-10-03T11:49:40.842Z,56.94
2018-10-03T11:52:09.465Z,58.75
2018-10-03T11:54:38.014Z,55.47
2018-10-03T11:57:06.628Z,55.95
2018-10-03T11:59:35.213Z,58.90
2018-10-03T12:02:03.675Z,58.14
2018-10-03T12:04:32.260Z,58.20
2018-10-03T12:07:01.048Z,59.59
2018-10-03T12:09:29.636Z,58.95
2018-10-03T12:11:58.244Z,59.79
2018-10-03T12:14:26.908Z,64.61
2018-10-03T12:16:55.340Z,70.82
2018-10-03T12:19:23.960Z,70.08
2018-10-03T12:21:52.673Z,69.52
2018-10-03T12:24:21.133Z,69.67
2018-10-03T12:26:49.663Z,69.64
2018-10-03T12:29:18.252Z,68.46
2018-10-03T12:31:47.008Z,67.69
2018-10-03T12:34:16.463Z,67.18
2018-10-03T12:36:45.185Z,69.33
2018-10-03T12:39:13.705Z,72.10
2018-10-03T12:41:43.430Z,71.42
2018-10-03T12:44:14.103Z,70.49
2018-10-03T12:46:43.698Z,69.62
2018-10-03T12:49:12.370Z,69.90
2018-10-03T12:51:40.911Z,68.92
2018-10-03T12:54:09.466Z,67.71
2018-10-03T12:56:38.037Z,65.56
2018-10-03T12:59:06.933Z,63.16
2018-10-03T13:01:36.307Z,61.17
2018-10-03T13:04:04.820Z,63.95
2018-10-03T13:06:33.376Z,68.42
2018-10-03T13:09:01.968Z,69.82
2018-10-03T13:11:30.674Z,71.98
2018-10-03T13:13:59.123Z,72.62
2018-10-03T13:16:28.051Z,73.82
2018-10-03T13:18:56.653Z,74.77
2018-10-03T13:21:25.251Z,75.04
2018-10-03T13:23:53.691Z,75.68
2018-10-03T13:26:22.262Z,76.00
2018-10-03T13:28:50.922Z,76.81
2018-10-03T13:31:20.453Z,77.33
2018-10-03T13:33:49.013Z,78.37
2018-10-03T13:36:17.684Z,79.90
2018-10-03T13:38:47.044Z,81.46
2018-10-03T13:41:15.724Z,82.87
2018-10-03T13:43:44.703Z,83.64
2018-10-03T13:46:14.884Z,84.40
2018-10-03T13:48:44.031Z,84.23
2018-10-03T13:51:12.798Z,81.09
2018-10-03T13:53:41.546Z,80.06
2018-10-03T13:56:10.269Z,78.56
2018-10-03T13:58:39.271Z,77.65
2018-10-03T14:01:07.888Z,77.73
2018-10-03T14:03:37.865Z,78.07
2018-10-03T14:06:06.383Z,81.16
2018-10-03T14:08:35.029Z,85.05
2018-10-03T14:11:03.732Z,84.26
2018-10-03T14:13:35.096Z,79.64
2018-10-03T14:16:03.826Z,74.57
2018-10-03T14:18:32.985Z,71.96
2018-10-03T14:21:01.552Z,68.87
2018-10-03T14:23:30.185Z,71.55
2018-10-03T14:25:58.680Z,73.58
2018-10-03T14:28:27.238Z,73.64
2018-10-03T14:30:56.488Z,76.24
2018-10-03T14:33:25.158Z,76.54
2018-10-03T14:35:53.655Z,75.18
2018-10-03T14:38:22.661Z,74.84
2018-10-03T14:40:51.236Z,74.57
2018-10-03T14:43:19.857Z,67.79
2018-10-03T14:45:48.713Z,67.94
2018-10-03T14:48:17.283Z,70.36
2018-10-03T14:50:45.948Z,70.31
2018-10-03T14:53:15.522Z,71.40
2018-10-03T14:55:44.104Z,69.33
2018-10-03T14:58:12.806Z,68.34
2018-10-03T15:00:41.464Z,67.31
2018-10-03T15:03:10.963Z,67.72
2018-10-03T15:05:39.602Z,66.04
2018-10-03T15:08:09.677Z,66.08
2018-10-03T15:10:38.239Z,65.01
2018-10-03T15:13:06.762Z,64.23
2018-10-03T15:15:35.312Z,65.20
2018-10-03T15:18:04.059Z,65.97
2018-10-03T15:20:32.731Z,65.31
2018-10-03T15:23:02.224Z,65.90
2018-10-03T15:25:34.725Z,67.18
2018-10-03T15:28:03.331Z,68.70
2018-10-03T15:30:32.112Z,70.86
2018-10-03T15:33:00.743Z,71.50
2018-10-03T15:35:30.493Z,72.48
2018-10-03T15:37:59.221Z,73.17
2018-10-03T15:40:27.897Z,73.52
2018-10-03T15:42:56.456Z,73.93
2018-10-03T15:45:25.741Z,74.61
2018-10-03T15:47:55.292Z,74.10
2018-10-03T15:50:24.021Z,74.83
2018-10-03T15:52:52.629Z,75.65
2018-10-03T15:55:21.113Z,76.53
2018-10-03T15:57:49.698Z,77.46
2018-10-03T16:00:18.314Z,77.89
2018-10-03T16:02:48.984Z,78.77
2018-10-03T16:05:19.692Z,78.35
2018-10-03T16:07:49.869Z,78.12
2018-10-03T16:10:18.537Z,78.00
2018-10-03T16:12:47.215Z,77.87
2018-10-03T16:15:16.303Z,76.97
2018-10-03T16:17:44.972Z,77.92
2018-10-03T16:20:13.547Z,76.74
2018-10-03T16:22:42.275Z,76.61
2018-10-03T16:25:10.905Z,77.15
2018-10-03T16:27:39.490Z,76.72
2018-10-03T16:30:08.169Z,75.54
2018-10-03T16:32:36.855Z,76.11
2018-10-03T16:35:05.517Z,76.07
2018-10-03T16:37:34.057Z,76.11
2018-10-03T16:40:02.982Z,75.74
2018-10-03T16:42:31.564Z,75.26
2018-10-03T16:45:00.038Z,74.92
2018-10-03T16:47:28.584Z,74.26
2018-10-03T16:49:57.221Z,74.57
2018-10-03T16:52:25.813Z,74.62
2018-10-03T16:54:54.344Z,74.74
2018-10-03T16:57:22.883Z,74.89
2018-10-03T16:59:51.617Z,75.39
2018-10-03T17:02:21.318Z,74.01
2018-10-03T17:04:50.958Z,74.31
2018-10-03T17:07:20.294Z,74.39
2018-10-03T17:09:48.771Z,73.90
2018-10-03T17:12:17.527Z,74.12
2018-10-03T17:14:46.092Z,74.67
2018-10-03T17:17:14.718Z,73.86
2018-10-03T17:19:43.235Z,74.21
2018-10-03T17:22:11.944Z,74.56
2018-10-03T17:24:40.671Z,74.91
2018-10-03T17:27:09.274Z,75.03
2018-10-03T17:29:38.067Z,75.19
2018-10-03T17:32:06.703Z,74.68
2018-10-03T17:34:35.476Z,75.70
2018-10-03T17:37:04.353Z,75.12
2018-10-03T17:39:32.838Z,76.06
2018-10-03T17:42:03.637Z,75.85
2018-10-03T17:44:32.323Z,75.86
2018-10-03T17:47:01.034Z,76.65
2018-10-03T17:49:29.686Z,76.40
2018-10-03T17:51:58.286Z,76.29
2018-10-03T17:54:26.899Z,75.98
2018-10-03T17:56:55.524Z,76.42
2018-10-03T17:59:25.400Z,75.88
2018-10-03T18:01:56.094Z,76.10
2018-10-03T18:04:24.687Z,75.57
2018-10-03T18:06:53.355Z,77.08
2018-10-03T18:09:22.090Z,77.87
2018-10-03T18:11:50.716Z,78.80
2018-10-03T18:14:19.357Z,80.03
2018-10-03T18:16:49.438Z,81.49
2018-10-03T18:19:18.148Z,82.08
2018-10-03T18:21:46.624Z,82.67
2018-10-03T18:24:15.143Z,82.85
2018-10-03T18:26:43.824Z,82.75
2018-10-03T18:29:12.540Z,82.88
2018-10-03T18:31:41.232Z,82.57
2018-10-03T18:34:10.475Z,82.21
2018-10-03T18:36:39.409Z,82.27
2018-10-03T18:39:09.596Z,82.34
2018-10-03T18:41:38.938Z,81.46
2018-10-03T18:44:08.246Z,80.97
2018-10-03T18:46:37.138Z,79.25
2018-10-03T18:49:06.353Z,78.98
2018-10-03T18:51:35.631Z,78.25
2018-10-03T18:54:04.644Z,77.47
2018-10-03T18:56:34.575Z,77.38
2018-10-03T18:59:03.762Z,79.18
2018-10-03T19:01:33.214Z,80.64
2018-10-03T19:04:02.475Z,82.12
2018-10-03T19:06:31.577Z,82.54
2018-10-03T19:09:01.083Z,83.27
2018-10-03T19:11:30.082Z,83.55
2018-10-03T19:13:59.180Z,83.95
2018-10-03T19:16:30.123Z,84.32
2018-10-03T19:18:59.255Z,84.82
2018-10-03T19:21:28.305Z,85.17
2018-10-03T19:23:57.318Z,85.04
2018-10-03T19:26:26.264Z,85.23
2018-10-03T19:28:55.751Z,85.20
2018-10-03T19:31:24.618Z,85.54
2018-10-03T19:33:53.566Z,85.95
2018-10-03T19:36:22.508Z,86.12
2018-10-03T19:38:51.565Z,86.48
2018-10-03T19:41:20.639Z,86.64
2018-10-03T19:43:49.497Z,87.26
2018-10-03T19:46:18.135Z,87.50
2018-10-03T19:48:46.816Z,88.00
2018-10-03T19:51:16.038Z,88.38
2018-10-03T19:53:44.779Z,89.02
2018-10-03T19:56:13.603Z,89.35
2018-10-03T19:58:44.213Z,89.74
2018-10-03T20:01:12.849Z,89.62
2018-10-03T20:03:41.579Z,89.53
2018-10-03T20:06:10.221Z,90.04
2018-10-03T20:08:39.065Z,89.92
2018-10-03T20:11:07.868Z,89.89
2018-10-03T20:13:36.486Z,90.45
2018-10-03T20:16:05.178Z,90.73
2018-10-03T20:18:33.823Z,90.89
2018-10-03T20:21:02.500Z,91.87
2018-10-03T20:23:32.133Z,92.58
2018-10-03T20:26:00.806Z,92.77
2018-10-03T20:28:29.394Z,93.46
2018-10-03T20:30:59.134Z,93.44
2018-10-03T20:33:27.693Z,93.96
2018-10-03T20:35:56.351Z,94.56
2018-10-03T20:38:25.017Z,95.66
2018-10-03T20:40:53.880Z,95.97
2018-10-03T20:43:22.390Z,96.71
2018-10-03T20:45:51.961Z,97.87
2018-10-03T20:48:20.707Z,98.49
2018-10-03T20:50:49.280Z,99.28
2018-10-03T20:53:17.888Z,100.00
2018-10-03T20:55:46.453Z,99.94
2018-10-03T20:58:15.197Z,100.00
2018-10-03T21:00:43.792Z,100.00
2018-10-03T21:03:12.330Z,100.00
2018-10-03T21:05:41.086Z,100.00
2018-10-03T21:08:09.632Z,100.00
2018-10-03T21:10:38.437Z,100.00
2018-10-03T21:13:07.465Z,100.00
2018-10-03T21:15:36.230Z,100.00
2018-10-03T21:18:04.741Z,100.00
2018-10-03T21:20:33.237Z,100.00
2018-10-03T21:23:01.825Z,100.00
2018-10-03T21:25:31.061Z,100.00
2018-10-03T21:27:59.728Z,100.00
2018-10-03T21:30:28.535Z,100.00
2018-10-03T21:32:57.155Z,100.00
2018-10-03T21:35:25.680Z,100.00
2018-10-03T21:37:54.153Z,100.00
2018-10-03T21:40:22.990Z,100.00
2018-10-03T21:42:51.590Z,100.00
2018-10-03T21:45:20.175Z,100.00
2018-10-03T21:47:48.760Z,100.00
2018-10-03T21:50:17.933Z,100.00
2018-10-03T21:52:46.421Z,100.00
2018-10-03T21:55:14.989Z,100.00
2018-10-03T21:57:43.444Z,100.00
2018-10-03T22:00:12.082Z,100.00
2018-10-03T22:02:40.871Z,100.00
2018-10-03T22:05:10.316Z,100.00
2018-10-03T22:07:40.544Z,100.00
2018-10-03T22:10:09.377Z,100.00
2018-10-03T22:12:38.157Z,100.00
2018-10-03T22:15:07.009Z,100.00
2018-10-03T22:17:40.344Z,100.00
2018-10-03T22:20:10.992Z,100.00
2018-10-03T22:22:39.798Z,100.00
2018-10-03T22:25:08.594Z,100.00
2018-10-03T22:27:38.095Z,100.00
2018-10-03T22:30:06.998Z,100.00
2018-10-03T22:32:36.075Z,100.00
2018-10-03T22:35:04.790Z,100.00
2018-10-03T22:37:33.594Z,100.00
2018-10-03T22:40:02.485Z,100.00
2018-10-03T22:42:32.307Z,100.00
2018-10-03T22:45:01.145Z,100.00
2018-10-03T22:47:30.070Z,100.00
2018-10-03T22:49:58.876Z,100.00
2018-10-03T22:52:27.667Z,100.00
2018-10-03T22:54:56.473Z,100.00
2018-10-03T22:57:26.191Z,100.00
2018-10-03T22:59:55.517Z,100.00
2018-10-03T23:02:24.208Z,100.00
2018-10-03T23:04:52.903Z,100.00
2018-10-03T23:07:21.642Z,100.00
2018-10-03T23:09:50.459Z,100.00
2018-10-03T23:12:19.259Z,100.00
2018-10-03T23:14:47.956Z,100.00
2018-10-03T23:17:16.690Z,100.00
2018-10-03T23:19:45.372Z,100.00
2018-10-03T23:22:14.055Z,100.00
2018-10-03T23:24:42.816Z,100.00
2018-10-03T23:27:12.517Z,100.00
2018-10-03T23:29:41.273Z,100.00
2018-10-03T23:32:10.003Z,100.00
2018-10-03T23:34:38.949Z,100.00
2018-10-03T23:37:08.185Z,100.00
2018-10-03T23:39:36.995Z,100.00
2018-10-03T23:42:05.805Z,100.00
2018-10-03T23:44:34.478Z,100.00
2018-10-03T23:47:03.850Z,100.00
2018-10-03T23:49:32.665Z,100.00
2018-10-03T23:52:01.356Z,100.00
2018-10-03T23:54:30.146Z,100.00
2018-10-03T23:56:59.042Z,100.00
2018-10-03T23:59:28.174Z,100.00
